Aviation Digital Data Service (ADDS)

Output produced by METARs form (0031 UTC 24 May 2022)
found at http://www.aviationweather.gov/metar/data/
 
TAF FLMF 231600Z 2318/2424 15005KT CAVOK 
     BECMG 2402/2404 15010KT 
     BECMG 2408/2410 VRB03KT SCT025 
     BECMG 2412/2414 SCT040